Belmont, New York
Current Conditions -  °F | °C
As of 6:56 AM on Thursday 27 Nov 2014 (Local Time) from KELZ Reporting Station
Overcast Overcast  
Wind Chill: 16°   Ceiling: 2100
Heat Index: 24°   Visibility: 10mi
Dew Point: 20°   Wind: 7mph
Humidity: 84%   Direction: 320°NW
Pressure: 29.97"   Gusts: NA
Location:  42.22°N, 78.03°W
Report Text: KELZ 271156Z AUTO 32006KT 10SM FEW015 BKN021 OVC027 M04/M07 A2997 RMK AO2 SLP176 60000 70009 T10441067 11028 21044 53007
Loading
Personal Weather Stations






























Interactive Weather Map New forecast layout! Learn more

10-Day Weather Forecast

Advertisements
Track Severe Weather on mobile